Scottsville, Texas
Current Conditions -  °F | °C
As of 12:35 PM on Thursday 27 Nov 2014 (Local Time) from KASL Reporting Station
Clear Clear  
Wind Chill: 56°   Ceiling: Unl
Heat Index: 56°   Visibility: 10mi
Dew Point: 23°   Wind: 3mph
Humidity: 28%   Direction: 360°N
Pressure: 30.51"   Gusts: NA
Location:  32.54°N, 94.24°W
Report Text: KASL 271835Z AUTO 36003KT 10SM CLR 13/M05 A3051 RMK AO1 T01321052
Loading
Personal Weather Stations






























Interactive Weather Map New forecast layout! Learn more

10-Day Weather Forecast

Advertisements
Track Severe Weather on mobile